Time;durP1;ratioP1;P1;durP2;ratioP2;P2;SDS_P1;SDS_P2;PMS_P1;PMS_P2;Temp;Humidity;BMP_temperature;BMP_pressure;BME280_temperature;BME280_humidity;BME280_pressure;Samples;Min_cycle;Max_cycle;Signal;HPM_P1;HPM_P2
2022/10/10 00:00:38;;;;;;;5.03;4.63;;;;;19.60;100453.00;;;;2054391;28;20752;-49
2022/10/10 00:01:38;;;;;;;4.43;4.03;;;;;19.60;100453.00;;;;2054389;28;20223;-49
2022/10/10 00:02:38;;;;;;;5.73;5.23;;;;;19.60;100451.00;;;;2053881;28;20219;-50
2022/10/10 00:03:39;;;;;;;4.30;3.90;;;;;19.60;100448.00;;;;2054288;28;20271;-49
2022/10/10 00:04:39;;;;;;;4.70;4.10;;;;;19.60;100449.00;;;;2054241;28;20219;-50
2022/10/10 00:05:40;;;;;;;4.53;4.13;;;;;19.60;100448.00;;;;2053918;28;20271;-50
2022/10/10 00:06:40;;;;;;;4.63;4.23;;;;;19.60;100447.00;;;;2054205;28;20269;-51
2022/10/10 00:07:40;;;;;;;4.67;4.27;;;;;19.60;100444.00;;;;2054403;28;20256;-49
2022/10/10 00:08:41;;;;;;;5.40;4.53;;;;;19.60;100447.00;;;;2054247;28;20207;-49
2022/10/10 00:09:41;;;;;;;5.17;4.73;;;;;19.60;100444.00;;;;2053631;28;20219;-50
2022/10/10 00:10:42;;;;;;;4.63;4.23;;;;;19.60;100441.00;;;;2053460;28;20250;-50
2022/10/10 00:11:42;;;;;;;4.40;3.97;;;;;19.60;100444.00;;;;2054140;28;20217;-50
2022/10/10 00:12:42;;;;;;;4.53;4.13;;;;;19.60;100448.00;;;;2053239;28;20223;-50
2022/10/10 00:13:43;;;;;;;4.53;4.13;;;;;19.60;100446.00;;;;2052954;28;20299;-50
2022/10/10 00:14:43;;;;;;;5.20;4.70;;;;;19.60;100446.00;;;;2054352;28;20220;-49
2022/10/10 00:15:43;;;;;;;5.47;4.13;;;;;19.60;100442.00;;;;2054396;28;20216;-50
2022/10/10 00:16:44;;;;;;;4.80;4.40;;;;;19.60;100445.00;;;;2054229;28;20278;-50
2022/10/10 00:17:44;;;;;;;4.23;3.83;;;;;19.60;100453.00;;;;2057610;28;20686;-49
2022/10/10 00:18:45;;;;;;;4.93;4.47;;;;;19.60;100441.00;;;;2062174;28;20899;-49
2022/10/10 00:19:45;;;;;;;4.20;3.80;;;;;19.60;100448.00;;;;2062259;28;20226;-50
2022/10/10 00:20:45;;;;;;;4.67;3.93;;;;;19.60;100458.00;;;;2062305;28;20221;-50
2022/10/10 00:21:46;;;;;;;4.80;4.40;;;;;19.60;100446.00;;;;2063656;28;20234;-49
2022/10/10 00:22:46;;;;;;;4.40;3.73;;;;;19.60;100455.00;;;;2063600;28;20233;-50
2022/10/10 00:23:46;;;;;;;4.17;3.73;;;;;19.60;100445.00;;;;2063711;28;20218;-50
2022/10/10 00:24:47;;;;;;;4.40;4.00;;;;;19.60;100446.00;;;;2056854;28;20219;-49
2022/10/10 00:25:47;;;;;;;4.07;3.67;;;;;19.60;100423.00;;;;2055287;28;20282;-50
2022/10/10 00:26:47;;;;;;;4.67;3.97;;;;;19.60;100437.00;;;;2055439;28;20219;-49
2022/10/10 00:27:48;;;;;;;4.07;3.77;;;;;19.60;100438.00;;;;2055755;28;20209;-49
2022/10/10 00:28:48;;;;;;;4.40;4.00;;;;;19.60;100442.00;;;;2055794;28;20219;-50
2022/10/10 00:29:48;;;;;;;3.90;3.50;;;;;19.50;100448.00;;;;2056060;28;20246;-50
2022/10/10 00:30:49;;;;;;;5.07;3.77;;;;;19.60;100437.00;;;;2063096;28;20221;-49
2022/10/10 00:31:49;;;;;;;5.33;4.83;;;;;19.60;100445.00;;;;2062931;28;20211;-49
2022/10/10 00:32:49;;;;;;;4.37;3.70;;;;;19.60;100444.00;;;;2063828;28;20288;-49
2022/10/10 00:33:50;;;;;;;4.37;3.97;;;;;19.60;100454.00;;;;2060706;28;20215;-50
2022/10/10 00:34:50;;;;;;;4.00;3.60;;;;;19.60;100444.00;;;;2063732;28;20214;-49
2022/10/10 00:35:50;;;;;;;4.23;3.73;;;;;19.60;100445.00;;;;2064023;28;20207;-50
2022/10/10 00:36:51;;;;;;;3.97;3.57;;;;;19.60;100441.00;;;;2063717;28;20227;-50
2022/10/10 00:37:51;;;;;;;4.03;3.63;;;;;19.50;100439.00;;;;2063587;28;20210;-50
2022/10/10 00:38:51;;;;;;;4.30;3.90;;;;;19.60;100440.00;;;;2063594;28;20289;-50
2022/10/10 00:39:52;;;;;;;3.90;3.60;;;;;19.60;100440.00;;;;2063841;28;20215;-50
2022/10/10 00:40:54;;;;;;;3.60;3.30;;;;;19.50;100442.00;;;;2063948;28;20214;-50
2022/10/10 00:41:54;;;;;;;4.47;4.07;;;;;19.50;100443.00;;;;2060750;28;20218;-50
2022/10/10 00:42:54;;;;;;;4.40;3.50;;;;;19.60;100351.00;;;;2056293;28;20742;-50
2022/10/10 00:44:01;;;;;;;4.23;3.83;;;;;19.60;100444.00;;;;2054775;28;20637;-53
2022/10/10 00:45:21;;;;;;;4.03;3.63;;;;;19.60;100450.00;;;;2054871;28;20219;-50
2022/10/10 00:46:21;;;;;;;4.35;3.90;;;;;19.60;100446.00;;;;2061016;28;20211;-49
2022/10/10 00:47:21;;;;;;;3.90;3.60;;;;;19.60;100445.00;;;;2063618;28;20215;-50
2022/10/10 00:48:24;;;;;;;4.17;3.77;;;;;19.60;100420.00;;;;2063693;28;20246;-50
2022/10/10 00:49:25;;;;;;;3.63;3.33;;;;;19.60;100445.00;;;;2061728;28;20238;-49
2022/10/10 00:50:26;;;;;;;4.25;3.70;;;;;19.60;100449.00;;;;2047013;28;20275;-56
2022/10/10 00:51:26;;;;;;;3.70;3.40;;;;;19.60;100441.00;;;;2055070;28;20790;-53
2022/10/10 00:52:26;;;;;;;3.53;3.23;;;;;19.60;100440.00;;;;2055020;28;20215;-50
2022/10/10 00:53:33;;;;;;;4.20;3.33;;;;;19.50;100423.00;;;;2055659;28;20255;-50
2022/10/10 00:54:34;;;;;;;3.28;2.97;;;;;19.50;100446.00;;;;2046309;28;20251;-50
2022/10/10 00:55:34;;;;;;;3.40;3.10;;;;;19.50;100432.00;;;;2038847;29;20212;-50
2022/10/10 00:56:49;;;;;;;3.23;3.00;;;;;19.50;100440.00;;;;2047561;28;20220;-51
2022/10/10 00:57:50;;;;;;;3.42;3.03;;;;;19.60;100432.00;;;;2057017;28;20226;-50
2022/10/10 00:58:52;;;;;;;4.10;3.73;;;;;19.60;100432.00;;;;2062927;28;20222;-50
2022/10/10 00:59:52;;;;;;;3.78;3.40;;;;;19.50;100434.00;;;;2063529;28;20215;-50
2022/10/10 01:00:52;;;;;;;3.97;3.57;;;;;19.50;100425.00;;;;2063281;28;20214;-49
2022/10/10 01:01:53;;;;;;;4.47;4.07;;;;;19.60;100436.00;;;;2062370;28;20219;-50
2022/10/10 01:02:53;;;;;;;4.10;3.70;;;;;19.50;100426.00;;;;2062645;28;20221;-50
2022/10/10 01:03:57;;;;;;;3.40;3.10;;;;;19.50;100427.00;;;;2063121;28;20203;-50
2022/10/10 01:04:58;;;;;;;3.47;3.17;;;;;19.60;100424.00;;;;2063244;28;20297;-54
2022/10/10 01:05:58;;;;;;;4.03;3.30;;;;;19.50;100430.00;;;;2063683;28;20218;-55
2022/10/10 01:06:58;;;;;;;4.07;3.73;;;;;19.60;100424.00;;;;2062852;28;20210;-54
2022/10/10 01:07:59;;;;;;;3.27;3.00;;;;;19.60;100430.00;;;;2063047;28;20227;-51
2022/10/10 01:09:00;;;;;;;3.87;3.47;;;;;19.50;100424.00;;;;2063007;28;20226;-49
2022/10/10 01:10:09;;;;;;;3.80;3.50;;;;;19.60;100423.00;;;;2062858;28;20446;-49
2022/10/10 01:11:09;;;;;;;3.55;3.25;;;;;19.60;100425.00;;;;2062184;28;20325;-51
2022/10/10 01:12:36;;;;;;;3.80;3.50;;;;;19.60;100410.00;;;;2062424;28;20223;-50
2022/10/10 01:13:54;;;;;;;3.50;3.20;;;;;19.60;100416.00;;;;2062738;28;20213;-49
2022/10/10 01:15:09;;;;;;;3.20;2.90;;;;;19.60;100414.00;;;;2062901;28;20225;-50
2022/10/10 01:16:22;;;;;;;3.72;3.17;;;;;19.60;100411.00;;;;2061962;28;20246;-50
2022/10/10 01:17:33;;;;;;;3.17;2.88;;;;;19.50;100414.00;;;;2054472;28;20748;-50
2022/10/10 01:18:41;;;;;;;3.80;3.40;;;;;19.50;100414.00;;;;2047779;28;20220;-49
2022/10/10 01:20:01;;;;;;;3.95;3.58;;;;;19.50;100411.00;;;;2054219;28;20215;-50
2022/10/10 01:21:04;;;;;;;3.15;2.85;;;;;19.50;100411.00;;;;2051008;28;20240;-49
2022/10/10 01:22:22;;;;;;;3.50;3.20;;;;;19.60;100409.00;;;;2054629;28;20636;-49
2022/10/10 01:23:30;;;;;;;2.95;2.63;;;;;19.60;100409.00;;;;2054201;28;20218;-49
2022/10/10 01:24:56;;;;;;;3.50;3.20;;;;;19.50;100415.00;;;;2056104;28;20242;-53
2022/10/10 01:26:08;;;;;;;3.22;2.92;;;;;19.50;100410.00;;;;2062060;28;20238;-50
2022/10/10 01:27:24;;;;;;;3.35;3.05;;;;;19.50;100404.00;;;;2061940;28;20226;-50
2022/10/10 01:28:34;;;;;;;3.20;2.90;;;;;19.60;100405.00;;;;2053870;28;20223;-49
2022/10/10 01:30:00;;;;;;;3.60;3.30;;;;;19.50;100409.00;;;;2049046;28;20228;-49
2022/10/10 01:31:00;;;;;;;3.30;3.00;;;;;19.50;100410.00;;;;2053895;28;20211;-50
2022/10/10 01:32:07;;;;;;;3.20;2.90;;;;;19.50;100405.00;;;;2061668;28;20219;-49
2022/10/10 01:33:12;;;;;;;3.60;3.30;;;;;19.50;100388.00;;;;2061628;28;20294;-50
2022/10/10 01:34:35;;;;;;;3.22;2.78;;;;;19.50;100400.00;;;;2061475;28;20215;-49
2022/10/10 01:35:59;;;;;;;3.05;2.80;;;;;19.50;100395.00;;;;2057668;28;20215;-50
2022/10/10 01:37:18;;;;;;;3.58;3.28;;;;;19.50;100396.00;;;;2047984;28;20287;-50
2022/10/10 01:38:28;;;;;;;3.35;3.05;;;;;19.50;100398.00;;;;2061142;28;20218;-50
2022/10/10 01:39:46;;;;;;;3.42;3.00;;;;;19.50;100407.00;;;;2054472;28;20663;-49
2022/10/10 01:41:09;;;;;;;3.28;2.97;;;;;19.50;100394.00;;;;2059497;28;20203;-49
2022/10/10 01:42:19;;;;;;;3.10;2.80;;;;;19.60;100395.00;;;;2053398;28;20223;-50
2022/10/10 01:43:19;;;;;;;2.65;2.45;;;;;19.60;100396.00;;;;2051676;28;20275;-50
2022/10/10 01:44:20;;;;;;;3.30;3.00;;;;;19.60;100391.00;;;;2055093;28;20270;-50
2022/10/10 01:45:21;;;;;;;3.30;3.00;;;;;19.50;100392.00;;;;2055335;28;20212;-50
2022/10/10 01:46:21;;;;;;;4.70;3.17;;;;;19.50;100394.00;;;;2055209;28;20589;-50
2022/10/10 01:47:22;;;;;;;3.33;3.03;;;;;19.50;100295.00;;;;2046789;28;20216;-49
2022/10/10 01:48:31;;;;;;;3.80;2.80;;;;;19.50;100397.00;;;;2046533;28;20209;-50
2022/10/10 01:49:32;;;;;;;2.75;2.55;;;;;19.50;100389.00;;;;2062451;28;20226;-50
2022/10/10 01:50:35;;;;;;;3.30;3.00;;;;;19.50;100383.00;;;;2062542;28;20252;-50
2022/10/10 01:52:03;;;;;;;3.20;2.90;;;;;19.50;100394.00;;;;2054322;28;20239;-53
2022/10/10 01:53:12;;;;;;;3.25;2.95;;;;;19.50;100391.00;;;;2056014;28;20238;-50
2022/10/10 01:54:22;;;;;;;3.20;2.90;;;;;19.50;100389.00;;;;2053867;28;20266;-50
2022/10/10 01:55:33;;;;;;;3.05;2.75;;;;;19.60;100386.00;;;;2055681;28;20700;-50
2022/10/10 01:56:55;;;;;;;3.20;2.90;;;;;19.50;100386.00;;;;2049980;28;20234;-50
2022/10/10 01:58:20;;;;;;;2.50;2.30;;;;;19.50;100391.00;;;;2057819;28;21860;-49
2022/10/10 01:59:48;;;;;;;3.83;3.15;;;;;19.50;100385.00;;;;2058691;28;20226;-50
2022/10/10 02:00:57;;;;;;;2.90;2.65;;;;;19.50;100386.00;;;;2061175;28;20218;-49
2022/10/10 02:02:22;;;;;;;2.90;2.60;;;;;19.50;100379.00;;;;2061453;28;20328;-49
2022/10/10 02:03:26;;;;;;;3.42;3.13;;;;;19.50;100388.00;;;;2061277;28;20211;-51
2022/10/10 02:04:29;;;;;;;2.90;2.60;;;;;19.50;100347.00;;;;2046278;28;20240;-49
2022/10/10 02:05:42;;;;;;;3.00;2.70;;;;;19.50;100392.00;;;;2051352;28;20589;-50
2022/10/10 02:06:47;;;;;;;2.70;2.50;;;;;19.50;100380.00;;;;2054245;28;20688;-50
2022/10/10 02:07:56;;;;;;;2.78;2.58;;;;;19.50;100381.00;;;;2047213;28;20927;-49
2022/10/10 02:09:03;;;;;;;3.10;2.80;;;;;19.50;100367.00;;;;2047647;28;20636;-50
2022/10/10 02:10:04;;;;;;;3.00;2.50;;;;;19.50;100380.00;;;;2055170;28;20235;-50
2022/10/10 02:11:07;;;;;;;2.75;2.42;;;;;19.50;100378.00;;;;2054126;28;21040;-49
2022/10/10 02:12:08;;;;;;;2.50;2.30;;;;;19.50;100370.00;;;;2053669;28;20231;-50
2022/10/10 02:13:09;;;;;;;3.10;2.60;;;;;19.50;100382.00;;;;2053996;28;20219;-49
2022/10/10 02:14:29;;;;;;;2.50;2.30;;;;;19.50;100379.00;;;;2038469;29;20209;-50
2022/10/10 02:15:35;;;;;;;2.40;2.20;;;;;19.50;100378.00;;;;2051071;28;20228;-49
2022/10/10 02:16:37;;;;;;;2.60;2.40;;;;;19.20;100377.00;;;;2062328;28;20850;-49
2022/10/10 02:17:37;;;;;;;2.70;2.50;;;;;19.50;100380.00;;;;2062327;28;20215;-50
2022/10/10 02:18:38;;;;;;;2.53;2.33;;;;;19.50;100373.00;;;;2062043;28;20309;-50
2022/10/10 02:19:43;;;;;;;2.60;2.40;;;;;19.50;100378.00;;;;2061655;28;20223;-49
2022/10/10 02:20:44;;;;;;;2.28;2.08;;;;;19.60;100379.00;;;;2061774;28;20222;-49
2022/10/10 02:21:45;;;;;;;2.83;2.53;;;;;19.60;100359.00;;;;2061491;28;20652;-49
2022/10/10 02:22:46;;;;;;;2.70;2.50;;;;;19.50;100378.00;;;;2046948;28;20232;-49
2022/10/10 02:23:47;;;;;;;2.73;2.53;;;;;19.60;100378.00;;;;2044645;28;20764;-49
2022/10/10 02:24:47;;;;;;;2.80;2.50;;;;;19.60;100377.00;;;;2044962;28;20212;-50
2022/10/10 02:25:52;;;;;;;2.63;2.43;;;;;19.50;100372.00;;;;2042782;28;20208;-50
2022/10/10 02:27:10;;;;;;;2.60;2.40;;;;;19.50;100370.00;;;;2055059;28;20212;-49
2022/10/10 02:28:28;;;;;;;2.45;2.25;;;;;19.50;100372.00;;;;2050816;28;20908;-50
2022/10/10 02:29:31;;;;;;;2.70;2.50;;;;;19.50;100370.00;;;;2058180;28;20218;-49
2022/10/10 02:30:33;;;;;;;2.53;2.33;;;;;19.50;100360.00;;;;2045932;28;20220;-50
2022/10/10 02:31:38;;;;;;;2.50;2.30;;;;;19.50;100368.00;;;;2038147;28;20710;-50
2022/10/10 02:32:41;;;;;;;2.97;2.78;;;;;19.50;100369.00;;;;2054109;28;20227;-49
2022/10/10 02:33:49;;;;;;;2.60;2.40;;;;;19.50;100350.00;;;;2051431;28;20348;-51
2022/10/10 02:34:51;;;;;;;2.72;2.50;;;;;19.50;100355.00;;;;2055877;28;20742;-49
2022/10/10 02:35:51;;;;;;;2.92;2.20;;;;;19.50;100362.00;;;;2062280;28;20309;-50
2022/10/10 02:36:56;;;;;;;2.80;2.60;;;;;19.50;100365.00;;;;2053845;28;20224;-50
2022/10/10 02:37:57;;;;;;;2.20;2.00;;;;;19.50;100364.00;;;;2054481;28;20215;-49
2022/10/10 02:38:57;;;;;;;2.45;2.25;;;;;19.50;100357.00;;;;2054035;28;20230;-50
2022/10/10 02:39:59;;;;;;;2.50;2.30;;;;;19.50;100367.00;;;;2062295;28;20222;-50
2022/10/10 02:41:02;;;;;;;2.40;2.17;;;;;19.50;100357.00;;;;2054143;28;20211;-50
2022/10/10 02:42:04;;;;;;;2.20;2.00;;;;;19.50;100353.00;;;;2045692;28;20227;-50
2022/10/10 02:43:05;;;;;;;2.60;2.40;;;;;19.50;100348.00;;;;2045028;28;20223;-50
2022/10/10 02:44:05;;;;;;;2.60;2.38;;;;;19.50;100361.00;;;;2045735;28;20263;-49
2022/10/10 02:45:06;;;;;;;2.47;2.10;;;;;19.50;100279.00;;;;2056675;28;20230;-50
2022/10/10 02:46:07;;;;;;;2.63;2.43;;;;;19.50;100356.00;;;;2053534;28;20216;-50
2022/10/10 02:47:07;;;;;;;2.60;2.20;;;;;19.50;100355.00;;;;2053966;28;20215;-49
2022/10/10 02:48:08;;;;;;;2.30;2.10;;;;;19.50;100354.00;;;;2062227;28;20215;-50
2022/10/10 02:49:08;;;;;;;2.50;2.30;;;;;19.50;100355.00;;;;2061816;28;20269;-49
2022/10/10 02:50:08;;;;;;;2.40;2.20;;;;;19.50;100350.00;;;;2062194;28;20222;-49
2022/10/10 02:51:09;;;;;;;2.70;2.50;;;;;19.50;100351.00;;;;2062904;28;20349;-49
2022/10/10 02:52:10;;;;;;;2.50;2.30;;;;;19.50;100353.00;;;;2061232;28;20666;-49
2022/10/10 02:53:12;;;;;;;2.63;2.20;;;;;19.50;100346.00;;;;2046806;28;20232;-49
2022/10/10 02:54:12;;;;;;;2.50;2.20;;;;;19.50;100347.00;;;;2053765;28;20239;-50
2022/10/10 02:55:12;;;;;;;2.60;2.40;;;;;19.50;100347.00;;;;2062721;28;20222;-50
2022/10/10 02:56:13;;;;;;;2.40;2.20;;;;;19.50;100352.00;;;;2062347;28;20266;-50
2022/10/10 02:57:13;;;;;;;2.43;2.23;;;;;19.50;100347.00;;;;2062748;28;20242;-50
2022/10/10 02:58:14;;;;;;;2.47;2.20;;;;;19.50;100344.00;;;;2062711;28;20735;-50
2022/10/10 02:59:14;;;;;;;2.57;2.37;;;;;19.50;100340.00;;;;2062422;28;20310;-49
2022/10/10 03:00:14;;;;;;;2.10;1.90;;;;;19.50;100343.00;;;;2060556;28;20250;-49
2022/10/10 03:01:15;;;;;;;2.27;2.07;;;;;19.50;100339.00;;;;2069793;28;20253;-50
2022/10/10 03:02:15;;;;;;;1.97;1.77;;;;;19.50;100339.00;;;;2061691;28;20254;-54
2022/10/10 03:03:15;;;;;;;2.50;2.30;;;;;19.50;100339.00;;;;2062630;28;20210;-49
2022/10/10 03:04:16;;;;;;;2.93;2.63;;;;;19.50;100348.00;;;;2062490;28;20211;-50
2022/10/10 03:05:16;;;;;;;2.60;2.40;;;;;19.50;100337.00;;;;2062305;28;20229;-50
2022/10/10 03:06:16;;;;;;;2.10;1.93;;;;;19.50;100340.00;;;;2062410;28;20745;-51
2022/10/10 03:07:17;;;;;;;2.33;2.13;;;;;19.50;100339.00;;;;2062236;28;20211;-49
2022/10/10 03:08:17;;;;;;;2.20;1.80;;;;;19.50;100349.00;;;;2062344;28;20293;-50
2022/10/10 03:09:17;;;;;;;2.50;2.17;;;;;19.50;100339.00;;;;2062285;28;20281;-50
2022/10/10 03:10:18;;;;;;;2.73;2.07;;;;;19.50;100330.00;;;;2061985;28;20226;-50
2022/10/10 03:11:18;;;;;;;3.30;2.77;;;;;19.50;100340.00;;;;2062706;28;20233;-49
2022/10/10 03:12:19;;;;;;;2.47;2.27;;;;;19.50;100346.00;;;;2061651;28;20215;-49
2022/10/10 03:13:20;;;;;;;2.33;2.13;;;;;19.50;100338.00;;;;2062605;28;20624;-49
2022/10/10 03:14:20;;;;;;;1.97;1.87;;;;;19.50;100338.00;;;;2062224;28;20226;-49
2022/10/10 03:15:21;;;;;;;2.30;2.10;;;;;19.50;100348.00;;;;2062512;28;20464;-50
2022/10/10 03:16:21;;;;;;;3.10;2.40;;;;;19.50;100334.00;;;;2062448;28;20581;-50
2022/10/10 03:17:21;;;;;;;2.00;1.80;;;;;19.50;100335.00;;;;2062717;28;20599;-50
2022/10/10 03:18:22;;;;;;;2.30;2.10;;;;;19.50;100337.00;;;;2055153;28;20845;-50
2022/10/10 03:19:22;;;;;;;2.20;2.00;;;;;19.50;100335.00;;;;2054678;28;21018;-50
2022/10/10 03:20:22;;;;;;;2.50;2.30;;;;;19.50;100324.00;;;;2054698;28;20718;-50
2022/10/10 03:21:23;;;;;;;2.50;2.30;;;;;19.50;100333.00;;;;2054448;28;20247;-50
2022/10/10 03:22:23;;;;;;;2.37;2.03;;;;;19.50;100335.00;;;;2057593;28;20227;-52
2022/10/10 03:23:23;;;;;;;2.30;2.10;;;;;19.50;100331.00;;;;2062387;28;20214;-49
2022/10/10 03:24:24;;;;;;;2.10;1.90;;;;;19.50;100333.00;;;;2062307;28;20218;-49
2022/10/10 03:25:24;;;;;;;2.17;1.83;;;;;19.50;100325.00;;;;2062409;28;20221;-50
2022/10/10 03:26:25;;;;;;;1.87;1.70;;;;;19.50;100323.00;;;;2062485;28;20309;-50
2022/10/10 03:27:25;;;;;;;2.63;2.33;;;;;19.50;100331.00;;;;2062376;28;20225;-49
2022/10/10 03:28:25;;;;;;;2.20;2.00;;;;;19.50;100325.00;;;;2062515;28;20215;-50
2022/10/10 03:29:26;;;;;;;2.33;2.13;;;;;19.50;100331.00;;;;2062574;28;20214;-49
2022/10/10 03:30:26;;;;;;;2.10;1.80;;;;;19.50;100317.00;;;;2062552;28;20211;-50
2022/10/10 03:31:26;;;;;;;2.23;2.03;;;;;19.50;100325.00;;;;2062337;28;20893;-50
2022/10/10 03:32:27;;;;;;;2.10;1.90;;;;;19.50;100323.00;;;;2061573;28;20215;-50
2022/10/10 03:33:27;;;;;;;2.60;2.40;;;;;19.50;100320.00;;;;2062574;28;20242;-50
2022/10/10 03:34:27;;;;;;;2.10;1.80;;;;;19.50;100324.00;;;;2056967;28;20645;-51
2022/10/10 03:35:28;;;;;;;2.17;1.97;;;;;19.50;100325.00;;;;2061482;28;20899;-51
2022/10/10 03:36:30;;;;;;;3.10;2.00;;;;;19.50;100323.00;;;;2061539;28;20223;-49
2022/10/10 03:37:30;;;;;;;2.30;2.10;;;;;19.50;100322.00;;;;2061165;28;20231;-50
2022/10/10 03:38:31;;;;;;;1.77;1.67;;;;;19.50;100323.00;;;;2061070;28;20682;-50
2022/10/10 03:39:31;;;;;;;1.90;1.80;;;;;19.50;100326.00;;;;2060819;28;20215;-50
2022/10/10 03:40:32;;;;;;;2.27;2.07;;;;;19.50;100321.00;;;;2053591;28;20868;-50
2022/10/10 03:41:32;;;;;;;2.57;2.37;;;;;19.50;100330.00;;;;2053704;28;20297;-50
2022/10/10 03:42:32;;;;;;;2.03;1.70;;;;;19.50;100319.00;;;;2052931;28;20312;-49
2022/10/10 03:43:33;;;;;;;2.33;2.10;;;;;19.50;100316.00;;;;2054456;28;20234;-50
2022/10/10 03:44:33;;;;;;;2.17;1.97;;;;;19.50;100325.00;;;;2053221;28;20227;-50
2022/10/10 03:45:33;;;;;;;2.10;1.73;;;;;19.50;100322.00;;;;2051046;28;20208;-50
2022/10/10 03:46:34;;;;;;;2.03;1.80;;;;;19.50;100330.00;;;;2053968;28;20223;-49
2022/10/10 03:47:34;;;;;;;2.40;1.97;;;;;19.50;100330.00;;;;2053874;28;20219;-50
2022/10/10 03:48:34;;;;;;;3.23;2.00;;;;;19.50;100324.00;;;;2054032;28;20230;-50
2022/10/10 03:49:35;;;;;;;2.13;1.73;;;;;19.50;100317.00;;;;2053741;28;20212;-50
2022/10/10 03:50:35;;;;;;;2.30;2.10;;;;;19.20;100321.00;;;;2053195;28;20218;-50
2022/10/10 03:51:36;;;;;;;1.60;1.50;;;;;19.40;100321.00;;;;2053962;28;20218;-50
2022/10/10 03:52:36;;;;;;;2.13;1.90;;;;;19.50;100326.00;;;;2053291;28;20695;-50
2022/10/10 03:53:36;;;;;;;2.30;1.90;;;;;19.50;100318.00;;;;2054065;28;20212;-50
2022/10/10 03:54:37;;;;;;;1.67;1.57;;;;;19.50;100317.00;;;;2053837;28;20204;-50
2022/10/10 03:55:40;;;;;;;2.00;1.80;;;;;19.50;100311.00;;;;2053144;28;20547;-50
2022/10/10 03:56:41;;;;;;;2.25;1.90;;;;;19.50;100321.00;;;;2058109;28;20711;-50
2022/10/10 03:57:41;;;;;;;2.40;2.20;;;;;19.50;100260.00;;;;2062025;28;20211;-50
2022/10/10 03:58:41;;;;;;;1.70;1.50;;;;;19.50;100312.00;;;;2061929;28;20582;-49
2022/10/10 03:59:42;;;;;;;2.20;1.83;;;;;19.50;100310.00;;;;2054784;28;20678;-49
2022/10/10 04:00:42;;;;;;;2.20;2.00;;;;;19.50;100311.00;;;;2057991;28;20631;-50
2022/10/10 04:01:42;;;;;;;2.10;1.63;;;;;19.50;100322.00;;;;2061556;28;20695;-49
2022/10/10 04:02:43;;;;;;;2.20;1.87;;;;;19.50;100315.00;;;;2059907;28;20921;-50
2022/10/10 04:03:43;;;;;;;4.20;1.93;;;;;19.50;100310.00;;;;2061312;28;20223;-50
2022/10/10 04:04:43;;;;;;;1.97;1.87;;;;;19.50;100313.00;;;;2057408;28;20208;-50
2022/10/10 04:05:44;;;;;;;2.00;1.80;;;;;19.50;100312.00;;;;2053972;28;20242;-50
2022/10/10 04:06:44;;;;;;;1.93;1.73;;;;;19.50;100308.00;;;;2053988;28;20234;-49
2022/10/10 04:07:44;;;;;;;2.13;1.93;;;;;19.40;100318.00;;;;2053723;28;20282;-50
2022/10/10 04:08:44;;;;;;;1.73;1.63;;;;;19.50;100319.00;;;;2054195;28;20224;-49
2022/10/10 04:09:45;;;;;;;1.67;1.57;;;;;19.50;100312.00;;;;2062040;28;20238;-50
2022/10/10 04:10:49;;;;;;;1.93;1.73;;;;;19.50;100310.00;;;;2062362;28;20250;-50
2022/10/10 04:11:49;;;;;;;1.75;1.65;;;;;19.50;100314.00;;;;2060222;28;20222;-49
2022/10/10 04:12:50;;;;;;;1.70;1.60;;;;;19.50;100309.00;;;;2061341;28;20218;-51
2022/10/10 04:13:50;;;;;;;1.90;1.80;;;;;19.50;100309.00;;;;2055558;28;20302;-50
2022/10/10 04:14:50;;;;;;;2.00;1.80;;;;;19.50;100311.00;;;;2060654;28;20573;-50
2022/10/10 04:15:51;;;;;;;1.87;1.77;;;;;19.50;100314.00;;;;2055748;28;20216;-50
2022/10/10 04:16:52;;;;;;;1.98;1.80;;;;;19.50;100311.00;;;;2061921;28;20240;-50
2022/10/10 04:17:52;;;;;;;2.30;2.07;;;;;19.50;100310.00;;;;2062993;28;20211;-50
2022/10/10 04:18:52;;;;;;;1.73;1.60;;;;;19.50;100304.00;;;;2059153;28;20266;-49
2022/10/10 04:19:53;;;;;;;2.60;1.60;;;;;19.50;100307.00;;;;2056885;28;20220;-50
2022/10/10 04:20:53;;;;;;;2.20;1.60;;;;;19.50;100309.00;;;;2060685;28;20218;-51
2022/10/10 04:21:53;;;;;;;1.93;1.60;;;;;19.50;100307.00;;;;2060281;28;20218;-51
2022/10/10 04:22:54;;;;;;;2.13;1.93;;;;;19.50;100313.00;;;;2062245;28;20794;-51
2022/10/10 04:23:54;;;;;;;2.60;2.40;;;;;19.50;100311.00;;;;2062095;28;20584;-51
2022/10/10 04:24:54;;;;;;;1.57;1.47;;;;;19.50;100307.00;;;;2055331;28;21233;-51
2022/10/10 04:25:55;;;;;;;2.10;1.90;;;;;19.50;100313.00;;;;2053919;28;20587;-48
2022/10/10 04:26:55;;;;;;;1.80;1.70;;;;;19.50;100313.00;;;;2054122;28;20658;-48
2022/10/10 04:27:55;;;;;;;1.77;1.63;;;;;19.50;100305.00;;;;2054362;28;20219;-50
2022/10/10 04:28:56;;;;;;;2.10;1.80;;;;;19.40;100307.00;;;;2054164;28;20215;-49
2022/10/10 04:29:56;;;;;;;1.90;1.50;;;;;19.50;100308.00;;;;2053926;28;20234;-51
2022/10/10 04:30:56;;;;;;;2.20;2.00;;;;;19.50;100300.00;;;;2053953;28;20246;-51
2022/10/10 04:31:57;;;;;;;1.80;1.70;;;;;19.50;100306.00;;;;2053116;28;20219;-51
2022/10/10 04:32:57;;;;;;;2.00;1.80;;;;;19.50;100302.00;;;;2054605;28;20223;-50
2022/10/10 04:33:57;;;;;;;1.70;1.60;;;;;19.40;100300.00;;;;2054095;28;20247;-50
2022/10/10 04:34:58;;;;;;;1.80;1.70;;;;;19.50;100303.00;;;;2054250;28;20216;-50
2022/10/10 04:35:58;;;;;;;1.57;1.47;;;;;19.50;100295.00;;;;2048573;28;20227;-49
2022/10/10 04:36:58;;;;;;;1.77;1.60;;;;;19.50;100295.00;;;;2059932;28;20641;-50
2022/10/10 04:37:59;;;;;;;2.40;1.83;;;;;19.50;100295.00;;;;2057477;28;20451;-49
2022/10/10 04:38:59;;;;;;;1.80;1.70;;;;;19.50;100300.00;;;;2053255;28;20621;-55
2022/10/10 04:39:59;;;;;;;1.63;1.53;;;;;19.50;100299.00;;;;2054315;28;20242;-49
2022/10/10 04:41:00;;;;;;;2.00;1.67;;;;;19.50;100287.00;;;;2054091;28;20215;-51
2022/10/10 04:42:00;;;;;;;2.40;1.40;;;;;19.50;100289.00;;;;2053039;28;20705;-51
2022/10/10 04:43:00;;;;;;;1.77;1.60;;;;;19.50;100291.00;;;;2054576;28;20208;-52
2022/10/10 04:44:01;;;;;;;1.63;1.53;;;;;19.50;100290.00;;;;2053689;28;20214;-51
2022/10/10 04:45:01;;;;;;;1.80;1.40;;;;;19.50;100294.00;;;;2054141;28;20215;-50
2022/10/10 04:46:01;;;;;;;1.97;1.77;;;;;19.40;100286.00;;;;2054314;28;20216;-48
2022/10/10 04:47:02;;;;;;;2.10;1.63;;;;;19.40;100289.00;;;;2053412;28;20263;-48
2022/10/10 04:48:02;;;;;;;1.70;1.60;;;;;19.50;100288.00;;;;2053892;28;20775;-51
2022/10/10 04:49:03;;;;;;;1.60;1.47;;;;;19.40;100297.00;;;;2053789;28;20239;-50
2022/10/10 04:50:03;;;;;;;2.07;1.53;;;;;19.40;100292.00;;;;2054156;28;20739;-51
2022/10/10 04:51:03;;;;;;;1.90;1.70;;;;;19.50;100299.00;;;;2054234;28;20692;-51
2022/10/10 04:52:04;;;;;;;1.83;1.63;;;;;19.40;100300.00;;;;2053098;28;20216;-51
2022/10/10 04:53:04;;;;;;;1.77;1.67;;;;;19.40;100296.00;;;;2053958;28;20223;-50
2022/10/10 04:54:05;;;;;;;2.73;1.70;;;;;19.50;100299.00;;;;2054004;28;20317;-50
2022/10/10 04:55:05;;;;;;;1.53;1.43;;;;;19.50;100301.00;;;;2053763;28;20704;-50
2022/10/10 04:56:05;;;;;;;1.70;1.60;;;;;19.40;100301.00;;;;2054165;28;20299;-49
2022/10/10 04:57:06;;;;;;;2.10;1.67;;;;;19.50;100304.00;;;;2053538;28;20231;-52
2022/10/10 04:58:06;;;;;;;2.13;1.63;;;;;19.40;100303.00;;;;2053244;28;20298;-50
2022/10/10 04:59:07;;;;;;;1.70;1.60;;;;;19.50;100304.00;;;;2053183;28;20215;-51
2022/10/10 05:00:08;;;;;;;2.00;1.63;;;;;19.40;100296.00;;;;2053930;28;20758;-50
2022/10/10 05:01:08;;;;;;;1.30;1.20;;;;;19.40;100295.00;;;;2054269;28;20419;-51
2022/10/10 05:02:09;;;;;;;1.80;1.60;;;;;19.40;100304.00;;;;2053222;28;20306;-49
2022/10/10 05:03:11;;;;;;;1.70;1.43;;;;;19.40;100303.00;;;;2054069;28;20226;-50
2022/10/10 05:04:13;;;;;;;1.55;1.45;;;;;19.40;100299.00;;;;2053818;28;20216;-49
2022/10/10 05:05:13;;;;;;;1.55;1.35;;;;;19.40;100297.00;;;;2053145;28;20212;-50
2022/10/10 05:06:13;;;;;;;1.70;1.60;;;;;19.40;100300.00;;;;2053422;28;20224;-49
2022/10/10 05:07:14;;;;;;;1.70;1.60;;;;;19.40;100299.00;;;;2054512;28;20224;-50
2022/10/10 05:08:14;;;;;;;1.87;1.67;;;;;19.20;100300.00;;;;2054701;28;20235;-49
2022/10/10 05:09:14;;;;;;;2.03;1.73;;;;;19.40;100300.00;;;;2054569;28;20212;-50
2022/10/10 05:10:15;;;;;;;1.50;1.40;;;;;19.40;100305.00;;;;2055593;28;20220;-49
2022/10/10 05:11:15;;;;;;;1.67;1.43;;;;;19.40;100299.00;;;;2053313;28;20216;-50